createdAt,value
2022-11-15T00:01:18.967Z,99.90
2022-11-15T00:03:47.116Z,99.90
2022-11-15T00:06:15.386Z,99.90
2022-11-15T00:08:43.385Z,99.90
2022-11-15T00:11:13.364Z,99.90
2022-11-15T00:13:41.532Z,99.90
2022-11-15T00:16:12.109Z,99.90
2022-11-15T00:18:40.682Z,99.90
2022-11-15T00:21:11.804Z,99.90
2022-11-15T00:23:39.920Z,99.90
2022-11-15T00:26:08.313Z,99.90
2022-11-15T00:28:36.313Z,99.90
2022-11-15T00:31:05.627Z,99.90
2022-11-15T00:33:35.446Z,99.90
2022-11-15T00:36:05.076Z,99.90
2022-11-15T00:38:34.510Z,99.90
2022-11-15T00:41:08.868Z,99.90
2022-11-15T00:43:37.620Z,99.90
2022-11-15T00:46:05.712Z,99.90
2022-11-15T00:48:35.059Z,99.90
2022-11-15T00:51:03.408Z,99.90
2022-11-15T00:53:31.803Z,99.20
2022-11-15T00:56:00.030Z,97.00
2022-11-15T00:58:28.078Z,97.40
2022-11-15T01:00:56.173Z,96.40
2022-11-15T01:03:24.323Z,96.90
2022-11-15T01:05:53.631Z,96.40
2022-11-15T01:08:21.632Z,96.60
2022-11-15T01:10:49.709Z,96.70
2022-11-15T01:13:17.701Z,97.20
2022-11-15T01:15:45.875Z,98.30
2022-11-15T01:18:13.965Z,99.40
2022-11-15T01:20:43.393Z,99.90
2022-11-15T01:23:12.762Z,99.70
2022-11-15T01:25:40.781Z,99.00
2022-11-15T01:28:08.941Z,99.30
2022-11-15T01:30:38.482Z,97.90
2022-11-15T01:33:06.541Z,98.00
2022-11-15T01:35:34.599Z,97.70
2022-11-15T01:38:02.588Z,96.30
2022-11-15T01:40:32.012Z,97.20
2022-11-15T01:43:00.115Z,95.80
2022-11-15T01:45:28.541Z,96.40
2022-11-15T01:47:57.487Z,97.30
2022-11-15T01:50:30.521Z,95.70
2022-11-15T01:52:58.753Z,96.60
2022-11-15T01:55:29.463Z,97.60
2022-11-15T01:58:03.851Z,97.00
2022-11-15T02:00:32.917Z,96.00
2022-11-15T02:03:16.152Z,96.50
2022-11-15T02:05:45.948Z,96.10
2022-11-15T02:08:21.006Z,96.10
2022-11-15T02:10:49.518Z,96.30
2022-11-15T02:13:19.920Z,97.30
2022-11-15T02:16:02.836Z,97.60
2022-11-15T02:18:36.206Z,98.80
2022-11-15T02:21:22.045Z,98.10
2022-11-15T02:24:24.267Z,97.60
2022-11-15T02:27:30.892Z,99.80
2022-11-15T02:30:18.789Z,98.60
2022-11-15T02:32:52.571Z,98.80
2022-11-15T02:35:28.057Z,97.60
2022-11-15T02:38:00.432Z,98.20
2022-11-15T02:40:40.072Z,99.60
2022-11-15T02:43:27.969Z,99.90
2022-11-15T02:46:03.976Z,99.90
2022-11-15T02:48:32.638Z,99.90
2022-11-15T02:51:01.542Z,99.90
2022-11-15T02:53:30.106Z,99.90
2022-11-15T02:55:59.523Z,99.90
2022-11-15T02:58:47.949Z,99.90
2022-11-15T03:01:29.466Z,99.90
2022-11-15T03:04:11.839Z,99.90
2022-11-15T03:06:47.760Z,98.90
2022-11-15T03:09:25.746Z,99.20
2022-11-15T03:11:59.551Z,99.90
2022-11-15T03:14:31.730Z,99.90
2022-11-15T03:17:07.336Z,99.90
2022-11-15T03:19:39.867Z,99.90
2022-11-15T03:22:12.451Z,99.90
2022-11-15T03:24:41.305Z,99.90
2022-11-15T03:27:12.077Z,99.90
2022-11-15T03:29:43.764Z,99.90
2022-11-15T03:32:17.154Z,99.90
2022-11-15T06:31:36.542Z,99.90
2022-11-15T06:34:04.605Z,99.90
2022-11-15T06:36:32.579Z,99.90
2022-11-15T06:39:00.557Z,99.90
2022-11-15T06:41:28.528Z,99.90
2022-11-15T06:43:56.568Z,99.90
2022-11-15T06:46:24.919Z,99.90
2022-11-15T06:48:54.492Z,99.90
2022-11-15T06:51:22.364Z,99.90
2022-11-15T06:53:50.366Z,99.90
2022-11-15T06:56:18.335Z,99.90
2022-11-15T06:58:46.527Z,99.90
2022-11-15T07:01:15.124Z,99.90
2022-11-15T07:03:44.672Z,99.90
2022-11-15T07:06:14.137Z,99.90
2022-11-15T07:08:42.630Z,99.90
2022-11-15T07:11:11.014Z,99.90
2022-11-15T07:13:39.101Z,99.90
2022-11-15T07:16:09.656Z,99.90
2022-11-15T07:18:38.438Z,99.90
2022-11-15T07:21:08.191Z,99.90
2022-11-15T07:23:38.578Z,99.90
2022-11-15T07:26:06.978Z,99.90
2022-11-15T07:28:35.503Z,99.90
2022-11-15T07:31:05.146Z,99.90
2022-11-15T07:33:33.600Z,99.90
2022-11-15T07:36:03.507Z,97.20
2022-11-15T07:38:31.590Z,95.60
2022-11-15T07:41:02.357Z,95.00
2022-11-15T07:43:31.676Z,94.10
2022-11-15T07:46:00.020Z,94.50
2022-11-15T07:48:42.316Z,94.70
2022-11-15T07:51:14.591Z,94.00
2022-11-15T07:53:43.011Z,96.10
2022-11-15T07:56:12.898Z,97.10
2022-11-15T07:58:41.141Z,97.60
2022-11-15T08:01:10.861Z,96.70
2022-11-15T08:03:39.514Z,96.70
2022-11-15T08:06:07.777Z,96.00
2022-11-15T08:08:35.796Z,95.60
2022-11-15T08:11:04.211Z,94.60
2022-11-15T08:13:34.476Z,95.80
2022-11-15T08:16:03.820Z,93.30
2022-11-15T08:18:31.836Z,94.50
2022-11-15T08:21:01.711Z,94.80
2022-11-15T08:23:30.179Z,96.40
2022-11-15T08:26:03.242Z,94.50
2022-11-15T08:28:33.737Z,96.20
2022-11-15T08:31:01.739Z,94.70
2022-11-15T08:33:30.858Z,93.50
2022-11-15T08:35:59.971Z,94.90
2022-11-15T08:38:29.724Z,98.00
2022-11-15T08:41:04.404Z,98.30
2022-11-15T08:43:34.709Z,96.80
2022-11-15T08:46:02.983Z,95.50
2022-11-15T08:48:32.459Z,95.80
2022-11-15T08:51:00.649Z,94.60
2022-11-15T08:53:28.672Z,93.70
2022-11-15T08:55:56.695Z,94.00
2022-11-15T08:58:24.736Z,97.30
2022-11-15T09:00:54.083Z,94.10
2022-11-15T09:03:22.149Z,93.00
2022-11-15T09:05:50.741Z,92.40
2022-11-15T09:08:46.119Z,91.70
2022-11-15T09:11:07.791Z,90.60
2022-11-15T09:13:37.855Z,90.60
2022-11-15T09:16:08.026Z,87.10
2022-11-15T09:18:36.655Z,85.00
2022-11-15T09:21:05.308Z,88.80
2022-11-15T09:23:33.368Z,86.40
2022-11-15T09:26:03.492Z,81.90
2022-11-15T09:28:32.346Z,78.90
2022-11-15T09:31:01.287Z,73.10
2022-11-15T09:33:31.304Z,79.70
2022-11-15T09:36:02.364Z,78.80
2022-11-15T09:38:31.092Z,74.20
2022-11-15T09:41:31.566Z,82.70
2022-11-15T09:44:08.755Z,86.70
2022-11-15T09:46:47.781Z,79.60
2022-11-15T09:49:19.123Z,73.70
2022-11-15T09:51:49.473Z,67.30
2022-11-15T09:57:19.552Z,70.70
2022-11-15T10:00:43.956Z,68.30
2022-11-15T10:03:12.245Z,64.40
2022-11-15T10:05:43.416Z,61.80
2022-11-15T10:08:27.706Z,66.20
2022-11-15T10:11:22.739Z,61.90
2022-11-15T10:13:50.311Z,64.00
2022-11-15T10:16:42.628Z,65.40
2022-11-15T10:19:22.842Z,69.00
2022-11-15T10:22:02.228Z,63.60
2022-11-15T10:24:35.838Z,62.00
2022-11-15T10:27:08.820Z,64.40
2022-11-15T10:29:36.855Z,62.80
2022-11-15T10:32:04.978Z,63.10
2022-11-15T10:34:38.297Z,70.90
2022-11-15T10:37:07.718Z,69.80
2022-11-15T10:39:36.063Z,72.90
2022-11-15T10:42:18.872Z,75.70
2022-11-15T10:44:47.537Z,70.90
2022-11-15T10:47:36.080Z,71.90
2022-11-15T10:50:09.463Z,74.20
2022-11-15T10:52:47.393Z,70.40
2022-11-15T10:55:26.828Z,72.00
2022-11-15T10:57:57.166Z,76.90
2022-11-15T11:00:45.935Z,78.00
2022-11-15T11:03:30.787Z,74.40
2022-11-15T11:06:11.286Z,76.60
2022-11-15T11:08:41.181Z,75.70
2022-11-15T11:11:09.926Z,79.20
2022-11-15T11:13:39.648Z,83.90
2022-11-15T11:16:40.086Z,80.70
2022-11-15T11:19:33.738Z,71.90
2022-11-15T11:22:07.834Z,73.40
2022-11-15T11:24:45.118Z,72.50
2022-11-15T11:27:29.099Z,74.30
2022-11-15T11:30:08.231Z,75.30
2022-11-15T11:33:15.007Z,75.90
2022-11-15T11:35:53.065Z,76.80
2022-11-15T11:38:36.574Z,78.70
2022-11-15T11:41:17.159Z,85.10
2022-11-15T11:43:55.461Z,80.10
2022-11-15T11:46:49.515Z,79.40
2022-11-15T11:49:25.399Z,76.80
2022-11-15T11:51:57.720Z,81.30
2022-11-15T11:54:34.655Z,82.00
2022-11-15T11:57:07.618Z,84.50
2022-11-15T11:59:41.869Z,82.10
2022-11-15T12:02:17.683Z,79.30
2022-11-15T12:04:52.211Z,77.40
2022-11-15T12:07:25.118Z,82.70
2022-11-15T12:10:00.171Z,79.10
2022-11-15T12:12:37.390Z,76.90
2022-11-15T12:15:14.334Z,76.20
2022-11-15T12:17:43.776Z,78.10
2022-11-15T12:20:19.773Z,77.70
2022-11-15T12:22:54.695Z,77.80
2022-11-15T12:25:27.846Z,78.30
2022-11-15T12:28:00.732Z,74.20
2022-11-15T12:30:42.794Z,77.90
2022-11-15T12:33:35.822Z,77.80
2022-11-15T12:36:06.669Z,75.20
2022-11-15T12:38:56.837Z,70.30
2022-11-15T12:41:26.699Z,69.80
2022-11-15T12:43:56.139Z,69.60
2022-11-15T12:46:41.694Z,74.70
2022-11-15T12:49:12.735Z,75.60
2022-11-15T12:52:09.557Z,71.80
2022-11-15T12:55:02.934Z,76.50
2022-11-15T12:57:34.180Z,76.30
2022-11-15T13:00:07.819Z,73.90
2022-11-15T13:02:37.693Z,76.80
2022-11-15T13:05:43.530Z,79.20
2022-11-15T13:08:11.594Z,81.20
2022-11-15T13:10:39.616Z,84.00
2022-11-15T13:13:10.834Z,85.30
2022-11-15T13:15:57.211Z,85.60
2022-11-15T13:18:40.953Z,89.80
2022-11-15T13:21:41.464Z,91.70
2022-11-15T13:24:17.660Z,90.70
2022-11-15T13:26:45.780Z,89.90
2022-11-15T13:29:21.950Z,90.50
2022-11-15T13:31:51.824Z,91.80
2022-11-15T13:37:32.082Z,91.70
2022-11-15T13:40:20.723Z,90.70
2022-11-15T13:42:48.712Z,91.50
2022-11-15T13:45:19.186Z,91.90
2022-11-15T13:47:54.055Z,93.60
2022-11-15T13:50:24.157Z,94.30
2022-11-15T13:52:52.590Z,95.00
2022-11-15T13:55:24.435Z,95.80
2022-11-15T13:57:55.472Z,96.40
2022-11-15T14:00:34.034Z,96.60
2022-11-15T14:03:15.157Z,95.30
2022-11-15T14:05:43.361Z,94.90
2022-11-15T14:08:24.662Z,94.60
2022-11-15T14:11:08.660Z,94.70
2022-11-15T14:13:37.163Z,95.60
2022-11-15T14:16:19.896Z,95.80
2022-11-15T14:18:51.168Z,96.10
2022-11-15T14:21:20.020Z,94.00
2022-11-15T14:23:49.922Z,94.90
2022-11-15T14:26:32.220Z,94.10
2022-11-15T14:29:23.849Z,94.20
2022-11-15T14:31:52.406Z,94.60
2022-11-15T14:34:23.102Z,94.20
2022-11-15T14:36:51.112Z,96.00
2022-11-15T14:39:19.099Z,95.20
2022-11-15T14:41:47.099Z,95.50
2022-11-15T14:44:19.326Z,95.00
2022-11-15T14:46:48.661Z,95.60
2022-11-15T14:49:17.233Z,96.20
2022-11-15T14:51:46.673Z,97.40
2022-11-15T14:54:14.681Z,97.90
2022-11-15T14:56:43.590Z,98.60
2022-11-15T14:59:11.635Z,98.90
2022-11-15T15:01:39.657Z,98.80
2022-11-15T15:04:07.682Z,99.30
2022-11-15T15:06:35.754Z,98.50
2022-11-15T15:09:06.141Z,98.10
2022-11-15T15:11:34.340Z,97.10
2022-11-15T15:14:02.440Z,96.50
2022-11-15T15:16:30.451Z,96.90
2022-11-15T15:18:58.512Z,96.90
2022-11-15T15:21:33.717Z,97.40
2022-11-15T15:24:05.509Z,97.90
2022-11-15T15:26:35.941Z,99.00
2022-11-15T15:29:03.949Z,98.90
2022-11-15T15:31:33.652Z,98.70
2022-11-15T15:34:01.702Z,97.60
2022-11-15T15:36:29.749Z,99.30
2022-11-15T15:38:57.744Z,99.20
2022-11-15T15:41:27.255Z,99.50
2022-11-15T15:43:55.101Z,99.60
2022-11-15T15:46:23.323Z,98.70
2022-11-15T15:48:51.374Z,98.40
2022-11-15T15:51:20.664Z,98.60
2022-11-15T15:53:49.080Z,99.40
2022-11-15T15:56:17.111Z,99.90
2022-11-15T15:58:46.438Z,99.30
2022-11-15T16:01:14.533Z,99.50
2022-11-15T16:03:42.573Z,98.00
2022-11-15T16:06:34.385Z,98.40
2022-11-15T16:09:15.183Z,98.60
2022-11-15T16:11:44.275Z,98.50
2022-11-15T16:14:13.964Z,98.60
2022-11-15T16:16:41.972Z,98.70
2022-11-15T16:19:12.517Z,98.30
2022-11-15T16:21:40.513Z,98.20
2022-11-15T16:24:08.563Z,98.80
2022-11-15T16:26:38.667Z,99.40
2022-11-15T16:29:07.927Z,99.40
2022-11-15T16:31:37.402Z,98.50
2022-11-15T16:34:05.297Z,97.70
2022-11-15T16:36:35.844Z,98.50
2022-11-15T16:39:05.205Z,98.20
2022-11-15T16:41:33.600Z,98.30
2022-11-15T16:44:01.678Z,98.60
2022-11-15T16:46:30.355Z,98.90
2022-11-15T16:48:59.694Z,98.50
2022-11-15T16:51:27.881Z,98.60
2022-11-15T16:53:56.009Z,98.40
2022-11-15T16:56:27.303Z,98.20
2022-11-15T16:58:55.773Z,98.20
2022-11-15T17:01:26.310Z,98.90
2022-11-15T17:03:54.732Z,98.30
2022-11-15T17:06:25.240Z,98.10
2022-11-15T17:08:53.231Z,98.10
2022-11-15T17:11:23.542Z,98.50
2022-11-15T17:13:51.679Z,98.40
2022-11-15T17:16:20.239Z,99.50
2022-11-15T17:18:52.498Z,99.90
2022-11-15T17:21:24.068Z,99.90
2022-11-15T17:23:53.299Z,99.90
2022-11-15T17:26:32.334Z,99.90
2022-11-15T17:29:02.367Z,99.90
2022-11-15T17:31:33.719Z,99.90
2022-11-15T17:34:02.602Z,99.90
2022-11-15T17:36:32.341Z,99.90
2022-11-15T17:39:00.517Z,99.90
2022-11-15T17:41:29.026Z,99.90
2022-11-15T17:43:59.048Z,99.90
2022-11-15T17:46:27.956Z,99.90
2022-11-15T17:48:56.909Z,99.90
2022-11-15T17:51:25.338Z,99.90
2022-11-15T17:53:56.401Z,99.90
2022-11-15T17:56:26.966Z,99.90
2022-11-15T17:58:56.193Z,99.90
2022-11-15T18:01:26.361Z,99.90
2022-11-15T18:03:55.157Z,99.90
2022-11-15T18:06:25.025Z,99.90
2022-11-15T18:08:56.638Z,99.90
2022-11-15T18:11:26.419Z,99.90
2022-11-15T18:13:56.694Z,99.90
2022-11-15T18:16:27.021Z,99.90
2022-11-15T18:18:56.079Z,99.90
2022-11-15T18:21:25.585Z,99.90
2022-11-15T18:23:57.012Z,99.90
2022-11-15T18:26:27.803Z,99.90
2022-11-15T18:28:57.080Z,99.90
2022-11-15T18:31:27.046Z,99.90
2022-11-15T18:33:55.780Z,99.90
2022-11-15T18:36:25.683Z,99.90
2022-11-15T18:38:57.500Z,99.90
2022-11-15T18:41:28.440Z,99.90
2022-11-15T18:43:57.350Z,99.90
2022-11-15T18:46:26.878Z,99.90
2022-11-15T18:48:55.122Z,99.90
2022-11-15T18:51:25.477Z,99.90
2022-11-15T18:53:54.277Z,99.80
2022-11-15T18:56:25.814Z,99.30
2022-11-15T18:58:56.321Z,99.10
2022-11-15T19:01:25.969Z,99.20
2022-11-15T19:03:55.658Z,99.90
2022-11-15T19:06:25.700Z,99.90
2022-11-15T19:08:57.284Z,99.90
2022-11-15T19:11:28.840Z,99.90
2022-11-15T19:13:59.397Z,99.90
2022-11-15T19:16:29.124Z,99.90
2022-11-15T19:18:58.155Z,99.90
2022-11-15T19:21:27.446Z,99.90
2022-11-15T19:23:56.024Z,99.10
2022-11-15T19:26:26.358Z,99.70
2022-11-15T19:28:55.839Z,99.60
2022-11-15T19:31:25.104Z,99.90
2022-11-15T19:33:54.357Z,99.90
2022-11-15T19:36:26.771Z,99.90
2022-11-15T19:38:55.383Z,99.90
2022-11-15T19:41:24.768Z,99.90
2022-11-15T19:43:54.779Z,99.90
2022-11-15T19:46:24.244Z,99.90
2022-11-15T19:48:52.611Z,99.90
2022-11-15T19:51:22.591Z,99.90
2022-11-15T19:53:53.030Z,99.40
2022-11-15T19:56:21.709Z,98.40
2022-11-15T19:58:54.091Z,98.10
2022-11-15T20:01:24.149Z,98.20
2022-11-15T20:03:54.649Z,99.00
2022-11-15T20:06:24.720Z,99.30
2022-11-15T20:08:53.200Z,99.00
2022-11-15T20:11:21.443Z,97.20
2022-11-15T20:13:49.723Z,97.20
2022-11-15T20:16:21.918Z,97.90
2022-11-15T20:18:51.490Z,98.90
2022-11-15T20:21:19.575Z,98.90
2022-11-15T20:23:50.574Z,99.60
2022-11-15T20:26:18.773Z,99.30
2022-11-15T20:28:47.953Z,99.10
2022-11-15T20:31:18.324Z,99.00
2022-11-15T20:33:46.781Z,99.50
2022-11-15T20:36:16.328Z,98.90
2022-11-15T20:38:44.243Z,99.70
2022-11-15T20:41:12.437Z,99.90
2022-11-15T20:43:43.235Z,99.90
2022-11-15T20:46:12.005Z,99.10
2022-11-15T20:48:41.469Z,98.80
2022-11-15T20:51:12.604Z,98.90
2022-11-15T20:53:41.668Z,99.40
2022-11-15T20:56:12.405Z,99.90
2022-11-15T20:58:40.466Z,99.90
2022-11-15T21:01:09.724Z,99.70
2022-11-15T21:03:37.966Z,99.30
2022-11-15T21:06:08.202Z,99.90
2022-11-15T21:08:50.184Z,99.90
2022-11-15T21:11:35.547Z,99.90
2022-11-15T21:14:08.782Z,99.90
2022-11-15T21:16:37.488Z,99.90
2022-11-15T21:19:06.567Z,99.90
2022-11-15T21:21:36.801Z,99.90
2022-11-15T21:24:12.947Z,99.90
2022-11-15T21:26:40.978Z,99.90
2022-11-15T21:29:09.052Z,99.90
2022-11-15T21:31:37.457Z,99.90
2022-11-15T21:34:07.261Z,99.90
2022-11-15T21:36:36.702Z,99.90
2022-11-15T21:39:04.838Z,99.90
2022-11-15T21:41:33.156Z,99.90
2022-11-15T21:44:02.326Z,99.90
2022-11-15T21:46:31.670Z,99.90
2022-11-15T21:49:00.171Z,99.90
2022-11-15T21:51:28.178Z,99.90
2022-11-15T21:53:57.707Z,99.90
2022-11-15T21:56:26.627Z,99.90
2022-11-15T21:58:55.171Z,99.90
2022-11-15T22:01:41.703Z,99.90
2022-11-15T22:04:09.944Z,99.90
2022-11-15T22:06:38.181Z,99.90
2022-11-15T22:09:08.467Z,99.90
2022-11-15T22:11:36.736Z,99.90
2022-11-15T22:14:05.046Z,99.90
2022-11-15T22:16:33.811Z,99.90
2022-11-15T22:19:01.865Z,99.90
2022-11-15T22:21:29.987Z,99.90
2022-11-15T22:23:58.116Z,99.90
2022-11-15T22:26:27.625Z,99.90
2022-11-15T22:28:55.475Z,99.90
2022-11-15T22:31:23.535Z,99.90
2022-11-15T22:33:51.672Z,99.90
2022-11-15T22:36:19.835Z,99.90
2022-11-15T22:38:47.924Z,99.90
2022-11-15T22:41:15.966Z,99.90
2022-11-15T22:43:48.087Z,99.90
2022-11-15T22:46:16.263Z,99.90
2022-11-15T22:48:44.307Z,99.90
2022-11-15T22:51:12.395Z,99.90
2022-11-15T22:53:40.530Z,99.90
2022-11-15T22:56:09.105Z,99.90
2022-11-15T22:58:37.863Z,99.90
2022-11-15T23:01:07.843Z,99.90
2022-11-15T23:03:36.110Z,99.90
2022-11-15T23:06:05.907Z,99.90
2022-11-15T23:08:34.451Z,99.90
2022-11-15T23:11:20.899Z,99.90
2022-11-15T23:13:52.532Z,99.90
2022-11-15T23:16:34.194Z,99.90
2022-11-15T23:19:04.749Z,99.90
2022-11-15T23:21:52.358Z,99.90
2022-11-15T23:24:20.950Z,99.90
2022-11-15T23:26:50.487Z,99.90
2022-11-15T23:29:19.348Z,99.90
2022-11-15T23:32:06.458Z,99.90
2022-11-15T23:34:37.458Z,99.90
2022-11-15T23:37:06.800Z,99.90
2022-11-15T23:39:34.935Z,99.90
2022-11-15T23:42:08.588Z,99.90
2022-11-15T23:44:37.641Z,99.90
2022-11-15T23:47:07.116Z,99.90
2022-11-15T23:49:35.190Z,99.90
2022-11-15T23:52:03.269Z,99.90
2022-11-15T23:54:31.747Z,99.90
2022-11-15T23:56:59.844Z,99.90
2022-11-15T23:59:28.126Z,99.90
